sensor_id;sensor_type;location;lat;lon;timestamp;P1;durP1;ratioP1;P2;durP2;ratioP2
29906;SDS011;16776;50.958;10.994;2024-01-10T00:01:00;22.23;;;9.13;;
29906;SDS011;16776;50.958;10.994;2024-01-10T00:03:27;17.33;;;8.50;;
29906;SDS011;16776;50.958;10.994;2024-01-10T00:05:54;19.55;;;9.40;;
29906;SDS011;16776;50.958;10.994;2024-01-10T00:08:21;17.90;;;8.55;;
29906;SDS011;16776;50.958;10.994;2024-01-10T00:10:47;17.88;;;7.80;;
29906;SDS011;16776;50.958;10.994;2024-01-10T00:13:14;20.77;;;9.20;;
29906;SDS011;16776;50.958;10.994;2024-01-10T00:15:42;19.92;;;9.88;;
29906;SDS011;16776;50.958;10.994;2024-01-10T00:18:08;16.23;;;9.35;;
29906;SDS011;16776;50.958;10.994;2024-01-10T00:20:35;19.67;;;9.05;;
29906;SDS011;16776;50.958;10.994;2024-01-10T00:23:02;15.82;;;8.15;;
29906;SDS011;16776;50.958;10.994;2024-01-10T00:25:28;28.60;;;11.48;;
29906;SDS011;16776;50.958;10.994;2024-01-10T00:27:55;19.15;;;7.90;;
29906;SDS011;16776;50.958;10.994;2024-01-10T00:30:21;21.63;;;10.45;;
29906;SDS011;16776;50.958;10.994;2024-01-10T00:32:49;21.02;;;10.27;;
29906;SDS011;16776;50.958;10.994;2024-01-10T00:35:16;24.45;;;11.18;;
29906;SDS011;16776;50.958;10.994;2024-01-10T00:37:41;16.23;;;7.85;;
29906;SDS011;16776;50.958;10.994;2024-01-10T00:40:08;19.42;;;9.95;;
29906;SDS011;16776;50.958;10.994;2024-01-10T00:42:35;22.58;;;10.68;;
29906;SDS011;16776;50.958;10.994;2024-01-10T00:45:02;16.80;;;8.85;;
29906;SDS011;16776;50.958;10.994;2024-01-10T00:47:28;18.58;;;8.27;;
29906;SDS011;16776;50.958;10.994;2024-01-10T00:49:56;24.90;;;9.18;;
29906;SDS011;16776;50.958;10.994;2024-01-10T00:52:23;21.60;;;9.43;;
29906;SDS011;16776;50.958;10.994;2024-01-10T00:54:49;19.65;;;9.25;;
29906;SDS011;16776;50.958;10.994;2024-01-10T00:57:16;13.82;;;8.00;;
29906;SDS011;16776;50.958;10.994;2024-01-10T00:59:42;19.55;;;8.80;;
29906;SDS011;16776;50.958;10.994;2024-01-10T01:02:09;17.85;;;9.20;;
29906;SDS011;16776;50.958;10.994;2024-01-10T01:04:35;14.18;;;7.38;;
29906;SDS011;16776;50.958;10.994;2024-01-10T01:07:04;13.60;;;6.85;;
29906;SDS011;16776;50.958;10.994;2024-01-10T01:09:30;16.45;;;7.85;;
29906;SDS011;16776;50.958;10.994;2024-01-10T01:11:57;13.98;;;7.68;;
29906;SDS011;16776;50.958;10.994;2024-01-10T01:14:23;18.77;;;8.25;;
29906;SDS011;16776;50.958;10.994;2024-01-10T01:16:50;18.90;;;8.70;;
29906;SDS011;16776;50.958;10.994;2024-01-10T01:19:16;18.70;;;8.27;;
29906;SDS011;16776;50.958;10.994;2024-01-10T01:21:43;16.17;;;7.93;;
29906;SDS011;16776;50.958;10.994;2024-01-10T01:24:11;15.25;;;7.80;;
29906;SDS011;16776;50.958;10.994;2024-01-10T01:26:37;16.88;;;8.95;;
29906;SDS011;16776;50.958;10.994;2024-01-10T01:29:04;16.13;;;8.60;;
29906;SDS011;16776;50.958;10.994;2024-01-10T01:31:31;17.70;;;8.55;;
29906;SDS011;16776;50.958;10.994;2024-01-10T01:33:57;17.80;;;7.90;;
29906;SDS011;16776;50.958;10.994;2024-01-10T01:36:24;18.67;;;9.13;;
29906;SDS011;16776;50.958;10.994;2024-01-10T01:38:51;19.38;;;8.48;;
29906;SDS011;16776;50.958;10.994;2024-01-10T01:41:19;17.10;;;8.85;;
29906;SDS011;16776;50.958;10.994;2024-01-10T01:43:45;21.65;;;9.30;;
29906;SDS011;16776;50.958;10.994;2024-01-10T01:46:12;13.55;;;7.43;;
29906;SDS011;16776;50.958;10.994;2024-01-10T01:48:39;14.63;;;7.10;;
29906;SDS011;16776;50.958;10.994;2024-01-10T01:51:07;14.32;;;7.45;;
29906;SDS011;16776;50.958;10.994;2024-01-10T01:53:35;16.73;;;8.25;;
29906;SDS011;16776;50.958;10.994;2024-01-10T01:56:03;16.05;;;7.15;;
29906;SDS011;16776;50.958;10.994;2024-01-10T01:58:34;20.00;;;8.30;;
29906;SDS011;16776;50.958;10.994;2024-01-10T02:01:01;14.82;;;7.28;;
29906;SDS011;16776;50.958;10.994;2024-01-10T02:03:30;14.98;;;6.38;;
29906;SDS011;16776;50.958;10.994;2024-01-10T02:05:57;19.70;;;8.20;;
29906;SDS011;16776;50.958;10.994;2024-01-10T02:08:24;19.25;;;8.05;;
29906;SDS011;16776;50.958;10.994;2024-01-10T02:10:50;16.15;;;7.95;;
29906;SDS011;16776;50.958;10.994;2024-01-10T02:13:17;16.00;;;7.55;;
29906;SDS011;16776;50.958;10.994;2024-01-10T02:15:46;14.18;;;7.32;;
29906;SDS011;16776;50.958;10.994;2024-01-10T02:18:12;16.23;;;7.65;;
29906;SDS011;16776;50.958;10.994;2024-01-10T02:20:39;14.00;;;6.78;;
29906;SDS011;16776;50.958;10.994;2024-01-10T02:23:08;15.25;;;7.45;;
29906;SDS011;16776;50.958;10.994;2024-01-10T02:25:36;18.20;;;8.85;;
29906;SDS011;16776;50.958;10.994;2024-01-10T02:28:03;16.17;;;8.25;;
29906;SDS011;16776;50.958;10.994;2024-01-10T02:30:30;17.88;;;8.02;;
29906;SDS011;16776;50.958;10.994;2024-01-10T02:32:57;18.77;;;8.93;;
29906;SDS011;16776;50.958;10.994;2024-01-10T02:35:23;13.43;;;6.88;;
29906;SDS011;16776;50.958;10.994;2024-01-10T02:37:51;16.00;;;7.15;;
29906;SDS011;16776;50.958;10.994;2024-01-10T02:40:19;23.63;;;10.05;;
29906;SDS011;16776;50.958;10.994;2024-01-10T02:42:47;15.77;;;6.88;;
29906;SDS011;16776;50.958;10.994;2024-01-10T02:45:13;13.88;;;7.35;;
29906;SDS011;16776;50.958;10.994;2024-01-10T02:47:40;16.50;;;7.00;;
29906;SDS011;16776;50.958;10.994;2024-01-10T02:50:07;15.40;;;8.10;;
29906;SDS011;16776;50.958;10.994;2024-01-10T02:52:34;16.40;;;8.48;;
29906;SDS011;16776;50.958;10.994;2024-01-10T02:55:01;14.27;;;7.38;;
29906;SDS011;16776;50.958;10.994;2024-01-10T02:57:27;15.30;;;7.50;;
29906;SDS011;16776;50.958;10.994;2024-01-10T02:59:55;16.27;;;7.43;;
29906;SDS011;16776;50.958;10.994;2024-01-10T03:02:22;16.35;;;8.25;;
29906;SDS011;16776;50.958;10.994;2024-01-10T03:04:49;14.70;;;7.43;;
29906;SDS011;16776;50.958;10.994;2024-01-10T03:07:15;16.55;;;8.35;;
29906;SDS011;16776;50.958;10.994;2024-01-10T03:09:42;15.43;;;8.25;;
29906;SDS011;16776;50.958;10.994;2024-01-10T03:12:09;11.45;;;6.88;;
29906;SDS011;16776;50.958;10.994;2024-01-10T03:14:37;16.77;;;7.30;;
29906;SDS011;16776;50.958;10.994;2024-01-10T03:17:05;15.02;;;7.63;;
29906;SDS011;16776;50.958;10.994;2024-01-10T03:19:32;14.95;;;7.45;;
29906;SDS011;16776;50.958;10.994;2024-01-10T03:21:58;16.40;;;7.70;;
29906;SDS011;16776;50.958;10.994;2024-01-10T03:24:25;14.63;;;6.97;;
29906;SDS011;16776;50.958;10.994;2024-01-10T03:26:52;17.83;;;7.82;;
29906;SDS011;16776;50.958;10.994;2024-01-10T03:29:19;17.38;;;8.25;;
29906;SDS011;16776;50.958;10.994;2024-01-10T03:31:45;14.32;;;8.15;;
29906;SDS011;16776;50.958;10.994;2024-01-10T03:34:13;10.48;;;6.90;;
29906;SDS011;16776;50.958;10.994;2024-01-10T03:36:42;15.82;;;9.40;;
29906;SDS011;16776;50.958;10.994;2024-01-10T03:39:08;13.75;;;6.80;;
29906;SDS011;16776;50.958;10.994;2024-01-10T03:41:35;13.00;;;7.30;;
29906;SDS011;16776;50.958;10.994;2024-01-10T03:44:02;15.82;;;5.93;;
29906;SDS011;16776;50.958;10.994;2024-01-10T03:46:28;14.50;;;6.88;;
29906;SDS011;16776;50.958;10.994;2024-01-10T03:48:55;16.02;;;7.50;;
29906;SDS011;16776;50.958;10.994;2024-01-10T03:51:23;11.80;;;5.60;;
29906;SDS011;16776;50.958;10.994;2024-01-10T03:53:50;15.13;;;7.55;;
29906;SDS011;16776;50.958;10.994;2024-01-10T03:56:16;16.88;;;8.10;;
29906;SDS011;16776;50.958;10.994;2024-01-10T03:58:43;14.93;;;7.22;;
29906;SDS011;16776;50.958;10.994;2024-01-10T04:01:09;14.00;;;6.82;;
29906;SDS011;16776;50.958;10.994;2024-01-10T04:03:36;16.92;;;7.75;;
29906;SDS011;16776;50.958;10.994;2024-01-10T04:06:03;18.15;;;7.63;;
29906;SDS011;16776;50.958;10.994;2024-01-10T04:08:32;18.40;;;7.50;;
29906;SDS011;16776;50.958;10.994;2024-01-10T04:10:58;14.07;;;6.18;;
29906;SDS011;16776;50.958;10.994;2024-01-10T04:13:25;15.10;;;8.45;;
29906;SDS011;16776;50.958;10.994;2024-01-10T04:15:51;16.95;;;8.15;;
29906;SDS011;16776;50.958;10.994;2024-01-10T04:18:18;15.75;;;7.70;;
29906;SDS011;16776;50.958;10.994;2024-01-10T04:20:45;16.35;;;6.97;;
29906;SDS011;16776;50.958;10.994;2024-01-10T04:23:12;12.63;;;6.43;;
29906;SDS011;16776;50.958;10.994;2024-01-10T04:25:40;13.55;;;7.38;;
29906;SDS011;16776;50.958;10.994;2024-01-10T04:28:06;15.57;;;7.25;;
29906;SDS011;16776;50.958;10.994;2024-01-10T04:30:33;12.27;;;6.30;;
29906;SDS011;16776;50.958;10.994;2024-01-10T04:32:59;16.52;;;7.72;;
29906;SDS011;16776;50.958;10.994;2024-01-10T04:35:26;14.23;;;6.90;;
29906;SDS011;16776;50.958;10.994;2024-01-10T04:37:52;16.85;;;7.45;;
29906;SDS011;16776;50.958;10.994;2024-01-10T04:40:19;17.42;;;9.07;;
29906;SDS011;16776;50.958;10.994;2024-01-10T04:42:47;21.58;;;8.63;;
29906;SDS011;16776;50.958;10.994;2024-01-10T04:45:14;12.48;;;7.50;;
29906;SDS011;16776;50.958;10.994;2024-01-10T04:47:40;16.92;;;8.05;;
29906;SDS011;16776;50.958;10.994;2024-01-10T04:50:07;17.30;;;7.78;;
29906;SDS011;16776;50.958;10.994;2024-01-10T04:52:34;15.40;;;7.43;;
29906;SDS011;16776;50.958;10.994;2024-01-10T04:55:01;18.45;;;7.70;;
29906;SDS011;16776;50.958;10.994;2024-01-10T04:57:30;18.60;;;8.70;;
29906;SDS011;16776;50.958;10.994;2024-01-10T04:59:58;15.55;;;7.88;;
29906;SDS011;16776;50.958;10.994;2024-01-10T05:02:25;14.50;;;7.70;;
29906;SDS011;16776;50.958;10.994;2024-01-10T05:04:50;18.60;;;7.97;;
29906;SDS011;16776;50.958;10.994;2024-01-10T05:07:17;13.23;;;6.90;;
29906;SDS011;16776;50.958;10.994;2024-01-10T05:09:44;17.67;;;7.78;;
29906;SDS011;16776;50.958;10.994;2024-01-10T05:12:10;17.88;;;8.57;;
29906;SDS011;16776;50.958;10.994;2024-01-10T05:14:37;14.65;;;7.25;;
29906;SDS011;16776;50.958;10.994;2024-01-10T05:17:05;17.58;;;8.18;;
29906;SDS011;16776;50.958;10.994;2024-01-10T05:19:32;14.18;;;7.10;;
29906;SDS011;16776;50.958;10.994;2024-01-10T05:21:59;16.23;;;6.07;;
29906;SDS011;16776;50.958;10.994;2024-01-10T05:24:25;17.77;;;8.70;;
29906;SDS011;16776;50.958;10.994;2024-01-10T05:26:52;16.25;;;7.43;;
29906;SDS011;16776;50.958;10.994;2024-01-10T05:29:18;15.43;;;8.68;;
29906;SDS011;16776;50.958;10.994;2024-01-10T05:31:47;18.75;;;8.75;;
29906;SDS011;16776;50.958;10.994;2024-01-10T05:34:15;14.07;;;6.25;;
29906;SDS011;16776;50.958;10.994;2024-01-10T05:36:42;13.75;;;6.80;;
29906;SDS011;16776;50.958;10.994;2024-01-10T05:39:08;15.15;;;8.63;;
29906;SDS011;16776;50.958;10.994;2024-01-10T05:41:35;13.75;;;6.43;;
29906;SDS011;16776;50.958;10.994;2024-01-10T05:44:01;12.18;;;6.53;;
29906;SDS011;16776;50.958;10.994;2024-01-10T05:46:29;14.73;;;5.93;;
29906;SDS011;16776;50.958;10.994;2024-01-10T05:48:56;14.40;;;7.13;;
29906;SDS011;16776;50.958;10.994;2024-01-10T05:51:24;15.73;;;7.32;;
29906;SDS011;16776;50.958;10.994;2024-01-10T05:53:50;15.60;;;7.10;;
29906;SDS011;16776;50.958;10.994;2024-01-10T05:56:17;20.70;;;8.38;;
29906;SDS011;16776;50.958;10.994;2024-01-10T05:58:43;16.23;;;7.78;;
29906;SDS011;16776;50.958;10.994;2024-01-10T06:01:10;16.75;;;8.77;;
29906;SDS011;16776;50.958;10.994;2024-01-10T06:03:36;19.05;;;8.52;;
29906;SDS011;16776;50.958;10.994;2024-01-10T06:06:04;17.45;;;8.98;;
29906;SDS011;16776;50.958;10.994;2024-01-10T06:08:32;16.95;;;8.98;;
29906;SDS011;16776;50.958;10.994;2024-01-10T06:10:58;15.15;;;8.57;;
29906;SDS011;16776;50.958;10.994;2024-01-10T06:13:25;16.08;;;8.63;;
29906;SDS011;16776;50.958;10.994;2024-01-10T06:15:51;14.63;;;8.30;;
29906;SDS011;16776;50.958;10.994;2024-01-10T06:18:18;16.85;;;8.38;;
29906;SDS011;16776;50.958;10.994;2024-01-10T06:20:45;16.92;;;8.73;;
29906;SDS011;16776;50.958;10.994;2024-01-10T06:23:11;14.80;;;7.45;;
29906;SDS011;16776;50.958;10.994;2024-01-10T06:25:39;16.40;;;7.22;;
29906;SDS011;16776;50.958;10.994;2024-01-10T06:28:06;21.50;;;9.13;;
29906;SDS011;16776;50.958;10.994;2024-01-10T06:30:32;15.32;;;8.13;;
29906;SDS011;16776;50.958;10.994;2024-01-10T06:33:00;12.43;;;6.93;;
29906;SDS011;16776;50.958;10.994;2024-01-10T06:35:27;17.48;;;8.10;;
29906;SDS011;16776;50.958;10.994;2024-01-10T06:37:54;15.85;;;8.52;;
29906;SDS011;16776;50.958;10.994;2024-01-10T06:40:21;15.07;;;7.93;;
29906;SDS011;16776;50.958;10.994;2024-01-10T06:42:49;12.75;;;7.10;;
29906;SDS011;16776;50.958;10.994;2024-01-10T06:45:15;14.82;;;7.53;;
29906;SDS011;16776;50.958;10.994;2024-01-10T06:47:42;12.70;;;7.95;;
29906;SDS011;16776;50.958;10.994;2024-01-10T06:50:09;16.50;;;7.43;;
29906;SDS011;16776;50.958;10.994;2024-01-10T06:52:36;18.17;;;8.15;;
29906;SDS011;16776;50.958;10.994;2024-01-10T06:55:03;13.75;;;7.00;;
29906;SDS011;16776;50.958;10.994;2024-01-10T06:57:31;20.60;;;8.55;;
29906;SDS011;16776;50.958;10.994;2024-01-10T06:59:59;16.85;;;8.13;;
29906;SDS011;16776;50.958;10.994;2024-01-10T07:02:27;19.20;;;8.07;;
29906;SDS011;16776;50.958;10.994;2024-01-10T07:04:53;14.00;;;7.15;;
29906;SDS011;16776;50.958;10.994;2024-01-10T07:07:20;17.45;;;8.70;;
29906;SDS011;16776;50.958;10.994;2024-01-10T07:09:46;15.77;;;8.40;;
29906;SDS011;16776;50.958;10.994;2024-01-10T07:12:13;16.58;;;8.85;;
29906;SDS011;16776;50.958;10.994;2024-01-10T07:14:40;18.38;;;8.98;;
29906;SDS011;16776;50.958;10.994;2024-01-10T07:17:08;19.70;;;8.60;;
29906;SDS011;16776;50.958;10.994;2024-01-10T07:19:34;15.77;;;8.60;;
29906;SDS011;16776;50.958;10.994;2024-01-10T07:22:01;17.48;;;8.52;;
29906;SDS011;16776;50.958;10.994;2024-01-10T07:24:27;15.38;;;7.90;;
29906;SDS011;16776;50.958;10.994;2024-01-10T07:26:54;15.68;;;8.93;;
29906;SDS011;16776;50.958;10.994;2024-01-10T07:29:22;15.43;;;8.98;;
29906;SDS011;16776;50.958;10.994;2024-01-10T07:31:48;19.10;;;9.82;;
29906;SDS011;16776;50.958;10.994;2024-01-10T07:34:19;16.70;;;8.32;;
29906;SDS011;16776;50.958;10.994;2024-01-10T07:36:46;18.00;;;8.57;;
29906;SDS011;16776;50.958;10.994;2024-01-10T07:39:13;22.33;;;9.57;;
29906;SDS011;16776;50.958;10.994;2024-01-10T07:41:40;19.98;;;9.25;;
29906;SDS011;16776;50.958;10.994;2024-01-10T07:44:07;14.95;;;8.98;;
29906;SDS011;16776;50.958;10.994;2024-01-10T07:46:34;19.45;;;7.93;;
29906;SDS011;16776;50.958;10.994;2024-01-10T07:49:02;24.88;;;10.23;;
29906;SDS011;16776;50.958;10.994;2024-01-10T07:51:31;20.70;;;9.18;;
29906;SDS011;16776;50.958;10.994;2024-01-10T07:53:57;22.48;;;10.85;;
29906;SDS011;16776;50.958;10.994;2024-01-10T07:56:25;21.00;;;10.50;;
29906;SDS011;16776;50.958;10.994;2024-01-10T07:58:51;21.48;;;9.98;;
29906;SDS011;16776;50.958;10.994;2024-01-10T08:01:18;26.85;;;12.43;;
29906;SDS011;16776;50.958;10.994;2024-01-10T08:03:44;23.52;;;10.82;;
29906;SDS011;16776;50.958;10.994;2024-01-10T08:06:11;26.50;;;11.57;;
29906;SDS011;16776;50.958;10.994;2024-01-10T08:08:40;24.42;;;12.88;;
29906;SDS011;16776;50.958;10.994;2024-01-10T08:11:06;24.02;;;11.20;;
29906;SDS011;16776;50.958;10.994;2024-01-10T08:13:33;20.60;;;11.40;;
29906;SDS011;16776;50.958;10.994;2024-01-10T08:15:59;23.33;;;10.77;;
29906;SDS011;16776;50.958;10.994;2024-01-10T08:18:26;23.25;;;10.77;;
29906;SDS011;16776;50.958;10.994;2024-01-10T08:20:53;18.38;;;9.82;;
29906;SDS011;16776;50.958;10.994;2024-01-10T08:23:20;21.58;;;10.23;;
29906;SDS011;16776;50.958;10.994;2024-01-10T08:25:48;19.75;;;10.50;;
29906;SDS011;16776;50.958;10.994;2024-01-10T08:28:15;21.80;;;11.77;;
29906;SDS011;16776;50.958;10.994;2024-01-10T08:30:41;25.90;;;11.25;;
29906;SDS011;16776;50.958;10.994;2024-01-10T08:33:08;22.52;;;9.93;;
29906;SDS011;16776;50.958;10.994;2024-01-10T08:35:35;22.90;;;10.73;;
29906;SDS011;16776;50.958;10.994;2024-01-10T08:38:02;23.00;;;9.90;;
29906;SDS011;16776;50.958;10.994;2024-01-10T08:40:32;23.45;;;11.15;;
29906;SDS011;16776;50.958;10.994;2024-01-10T08:43:00;22.58;;;11.57;;
29906;SDS011;16776;50.958;10.994;2024-01-10T08:45:26;22.67;;;10.93;;
29906;SDS011;16776;50.958;10.994;2024-01-10T08:47:54;21.83;;;10.95;;
29906;SDS011;16776;50.958;10.994;2024-01-10T08:50:20;21.73;;;10.35;;
29906;SDS011;16776;50.958;10.994;2024-01-10T08:52:47;24.38;;;11.50;;
29906;SDS011;16776;50.958;10.994;2024-01-10T08:55:13;31.13;;;12.60;;
29906;SDS011;16776;50.958;10.994;2024-01-10T08:57:40;27.38;;;13.27;;
29906;SDS011;16776;50.958;10.994;2024-01-10T09:00:09;29.73;;;12.43;;
29906;SDS011;16776;50.958;10.994;2024-01-10T09:02:37;27.88;;;14.18;;
29906;SDS011;16776;50.958;10.994;2024-01-10T09:05:04;26.48;;;12.75;;
29906;SDS011;16776;50.958;10.994;2024-01-10T09:07:33;30.27;;;13.00;;
29906;SDS011;16776;50.958;10.994;2024-01-10T09:09:59;29.42;;;14.25;;
29906;SDS011;16776;50.958;10.994;2024-01-10T09:12:26;26.73;;;12.93;;
29906;SDS011;16776;50.958;10.994;2024-01-10T09:14:53;26.58;;;11.40;;
29906;SDS011;16776;50.958;10.994;2024-01-10T09:17:21;28.92;;;12.57;;
29906;SDS011;16776;50.958;10.994;2024-01-10T09:19:48;31.17;;;12.93;;
29906;SDS011;16776;50.958;10.994;2024-01-10T09:22:14;29.80;;;11.15;;
29906;SDS011;16776;50.958;10.994;2024-01-10T09:24:41;26.38;;;11.77;;
29906;SDS011;16776;50.958;10.994;2024-01-10T09:27:07;26.10;;;12.40;;
29906;SDS011;16776;50.958;10.994;2024-01-10T09:29:34;25.73;;;10.75;;
29906;SDS011;16776;50.958;10.994;2024-01-10T09:32:00;27.85;;;12.32;;
29906;SDS011;16776;50.958;10.994;2024-01-10T09:34:29;35.95;;;14.30;;
29906;SDS011;16776;50.958;10.994;2024-01-10T09:36:55;39.25;;;16.90;;
29906;SDS011;16776;50.958;10.994;2024-01-10T09:39:22;29.48;;;13.45;;
29906;SDS011;16776;50.958;10.994;2024-01-10T09:41:49;34.03;;;13.35;;
29906;SDS011;16776;50.958;10.994;2024-01-10T09:44:16;29.17;;;12.07;;
29906;SDS011;16776;50.958;10.994;2024-01-10T09:46:45;35.60;;;13.45;;
29906;SDS011;16776;50.958;10.994;2024-01-10T09:49:14;24.90;;;12.10;;
29906;SDS011;16776;50.958;10.994;2024-01-10T09:51:42;27.80;;;12.43;;
29906;SDS011;16776;50.958;10.994;2024-01-10T09:54:09;27.30;;;13.07;;
29906;SDS011;16776;50.958;10.994;2024-01-10T09:56:36;30.33;;;12.85;;
29906;SDS011;16776;50.958;10.994;2024-01-10T09:59:03;33.42;;;16.23;;
29906;SDS011;16776;50.958;10.994;2024-01-10T10:01:35;38.25;;;15.68;;
29906;SDS011;16776;50.958;10.994;2024-01-10T10:04:04;30.30;;;13.43;;
29906;SDS011;16776;50.958;10.994;2024-01-10T10:06:30;32.80;;;14.15;;
29906;SDS011;16776;50.958;10.994;2024-01-10T10:08:58;34.72;;;16.55;;
29906;SDS011;16776;50.958;10.994;2024-01-10T10:11:25;30.75;;;13.90;;
29906;SDS011;16776;50.958;10.994;2024-01-10T10:13:52;31.55;;;14.13;;
29906;SDS011;16776;50.958;10.994;2024-01-10T10:16:22;34.67;;;15.15;;
29906;SDS011;16776;50.958;10.994;2024-01-10T10:18:51;42.08;;;17.83;;
29906;SDS011;16776;50.958;10.994;2024-01-10T10:21:23;35.60;;;16.23;;
29906;SDS011;16776;50.958;10.994;2024-01-10T10:23:59;36.42;;;15.90;;
29906;SDS011;16776;50.958;10.994;2024-01-10T10:26:29;41.55;;;17.95;;
29906;SDS011;16776;50.958;10.994;2024-01-10T10:28:58;29.80;;;14.85;;
29906;SDS011;16776;50.958;10.994;2024-01-10T10:31:25;36.97;;;13.93;;
29906;SDS011;16776;50.958;10.994;2024-01-10T10:33:54;35.05;;;16.58;;
29906;SDS011;16776;50.958;10.994;2024-01-10T10:36:20;35.10;;;16.80;;
29906;SDS011;16776;50.958;10.994;2024-01-10T10:38:47;33.20;;;16.70;;
29906;SDS011;16776;50.958;10.994;2024-01-10T10:41:15;34.72;;;16.63;;
29906;SDS011;16776;50.958;10.994;2024-01-10T10:43:44;34.30;;;15.38;;
29906;SDS011;16776;50.958;10.994;2024-01-10T10:46:11;33.80;;;15.60;;
29906;SDS011;16776;50.958;10.994;2024-01-10T10:48:38;40.30;;;17.63;;
29906;SDS011;16776;50.958;10.994;2024-01-10T10:51:05;38.58;;;18.35;;
29906;SDS011;16776;50.958;10.994;2024-01-10T10:53:34;33.15;;;15.73;;
29906;SDS011;16776;50.958;10.994;2024-01-10T10:56:02;31.95;;;14.73;;
29906;SDS011;16776;50.958;10.994;2024-01-10T10:58:32;36.00;;;16.95;;
29906;SDS011;16776;50.958;10.994;2024-01-10T11:01:00;36.90;;;16.20;;
29906;SDS011;16776;50.958;10.994;2024-01-10T11:03:30;33.45;;;14.60;;
29906;SDS011;16776;50.958;10.994;2024-01-10T11:05:59;32.42;;;15.95;;
29906;SDS011;16776;50.958;10.994;2024-01-10T11:08:28;34.47;;;14.85;;
29906;SDS011;16776;50.958;10.994;2024-01-10T11:10:59;32.28;;;15.60;;
29906;SDS011;16776;50.958;10.994;2024-01-10T11:13:27;38.75;;;15.70;;
29906;SDS011;16776;50.958;10.994;2024-01-10T11:16:21;37.13;;;16.15;;
29906;SDS011;16776;50.958;10.994;2024-01-10T11:19:14;29.40;;;13.80;;
29906;SDS011;16776;50.958;10.994;2024-01-10T11:21:56;35.40;;;15.32;;
29906;SDS011;16776;50.958;10.994;2024-01-10T11:24:31;30.55;;;13.93;;
29906;SDS011;16776;50.958;10.994;2024-01-10T11:27:06;33.13;;;15.38;;
29906;SDS011;16776;50.958;10.994;2024-01-10T11:29:36;33.80;;;15.50;;
29906;SDS011;16776;50.958;10.994;2024-01-10T11:32:06;38.78;;;15.15;;
29906;SDS011;16776;50.958;10.994;2024-01-10T11:34:34;34.63;;;16.02;;
29906;SDS011;16776;50.958;10.994;2024-01-10T11:37:08;29.35;;;14.88;;
29906;SDS011;16776;50.958;10.994;2024-01-10T11:39:35;33.03;;;15.35;;
29906;SDS011;16776;50.958;10.994;2024-01-10T11:42:02;29.27;;;13.73;;
29906;SDS011;16776;50.958;10.994;2024-01-10T11:44:29;30.73;;;15.48;;
29906;SDS011;16776;50.958;10.994;2024-01-10T11:46:56;34.67;;;16.02;;
29906;SDS011;16776;50.958;10.994;2024-01-10T11:49:25;33.58;;;15.77;;
29906;SDS011;16776;50.958;10.994;2024-01-10T11:51:53;35.92;;;16.02;;
29906;SDS011;16776;50.958;10.994;2024-01-10T11:54:41;32.28;;;15.65;;
29906;SDS011;16776;50.958;10.994;2024-01-10T11:57:09;37.53;;;14.75;;
29906;SDS011;16776;50.958;10.994;2024-01-10T11:59:37;37.17;;;16.10;;
29906;SDS011;16776;50.958;10.994;2024-01-10T12:02:04;32.25;;;14.68;;
29906;SDS011;16776;50.958;10.994;2024-01-10T12:04:33;33.22;;;14.70;;
29906;SDS011;16776;50.958;10.994;2024-01-10T12:07:00;29.05;;;13.13;;
29906;SDS011;16776;50.958;10.994;2024-01-10T12:09:28;34.10;;;16.35;;
29906;SDS011;16776;50.958;10.994;2024-01-10T12:11:55;33.33;;;16.42;;
29906;SDS011;16776;50.958;10.994;2024-01-10T12:14:22;36.70;;;16.17;;
29906;SDS011;16776;50.958;10.994;2024-01-10T12:16:50;30.25;;;14.63;;
29906;SDS011;16776;50.958;10.994;2024-01-10T12:19:17;28.10;;;14.30;;
29906;SDS011;16776;50.958;10.994;2024-01-10T12:21:45;30.77;;;15.77;;
29906;SDS011;16776;50.958;10.994;2024-01-10T12:24:12;33.38;;;15.82;;
29906;SDS011;16776;50.958;10.994;2024-01-10T12:26:43;32.50;;;16.10;;
29906;SDS011;16776;50.958;10.994;2024-01-10T12:29:10;29.60;;;14.82;;
29906;SDS011;16776;50.958;10.994;2024-01-10T12:31:37;31.27;;;15.65;;
29906;SDS011;16776;50.958;10.994;2024-01-10T12:34:06;32.00;;;16.27;;
29906;SDS011;16776;50.958;10.994;2024-01-10T12:36:33;32.42;;;16.20;;
29906;SDS011;16776;50.958;10.994;2024-01-10T12:39:02;35.17;;;17.13;;
29906;SDS011;16776;50.958;10.994;2024-01-10T12:41:29;31.73;;;15.32;;
29906;SDS011;16776;50.958;10.994;2024-01-10T12:43:56;31.85;;;16.70;;
29906;SDS011;16776;50.958;10.994;2024-01-10T12:46:28;32.70;;;16.27;;
29906;SDS011;16776;50.958;10.994;2024-01-10T12:48:58;30.75;;;15.02;;
29906;SDS011;16776;50.958;10.994;2024-01-10T12:51:26;36.33;;;16.73;;
29906;SDS011;16776;50.958;10.994;2024-01-10T12:53:54;36.47;;;15.70;;
29906;SDS011;16776;50.958;10.994;2024-01-10T12:56:22;32.58;;;15.65;;
29906;SDS011;16776;50.958;10.994;2024-01-10T12:58:49;42.00;;;16.38;;
29906;SDS011;16776;50.958;10.994;2024-01-10T13:01:15;33.60;;;15.82;;
29906;SDS011;16776;50.958;10.994;2024-01-10T13:03:42;37.50;;;17.10;;
29906;SDS011;16776;50.958;10.994;2024-01-10T13:06:09;39.17;;;18.35;;
29906;SDS011;16776;50.958;10.994;2024-01-10T13:08:44;37.40;;;17.23;;
29906;SDS011;16776;50.958;10.994;2024-01-10T13:11:11;38.88;;;18.58;;
29906;SDS011;16776;50.958;10.994;2024-01-10T13:13:40;38.25;;;19.30;;
29906;SDS011;16776;50.958;10.994;2024-01-10T13:16:08;39.83;;;18.88;;
29906;SDS011;16776;50.958;10.994;2024-01-10T13:18:36;41.03;;;19.35;;
29906;SDS011;16776;50.958;10.994;2024-01-10T13:21:03;37.75;;;17.77;;
29906;SDS011;16776;50.958;10.994;2024-01-10T13:23:30;35.20;;;17.92;;
29906;SDS011;16776;50.958;10.994;2024-01-10T13:25:57;37.38;;;18.67;;
29906;SDS011;16776;50.958;10.994;2024-01-10T13:28:24;40.10;;;19.25;;
29906;SDS011;16776;50.958;10.994;2024-01-10T13:30:52;42.63;;;20.02;;
29906;SDS011;16776;50.958;10.994;2024-01-10T13:33:21;42.70;;;19.80;;
29906;SDS011;16776;50.958;10.994;2024-01-10T13:35:47;39.10;;;19.67;;
29906;SDS011;16776;50.958;10.994;2024-01-10T13:38:14;37.28;;;18.67;;
29906;SDS011;16776;50.958;10.994;2024-01-10T13:40:42;37.83;;;18.15;;
29906;SDS011;16776;50.958;10.994;2024-01-10T13:43:09;38.97;;;18.42;;
29906;SDS011;16776;50.958;10.994;2024-01-10T13:45:36;33.92;;;14.50;;
29906;SDS011;16776;50.958;10.994;2024-01-10T13:48:05;36.58;;;17.23;;
29906;SDS011;16776;50.958;10.994;2024-01-10T13:50:32;35.22;;;17.02;;
29906;SDS011;16776;50.958;10.994;2024-01-10T13:52:59;40.08;;;18.25;;
29906;SDS011;16776;50.958;10.994;2024-01-10T13:55:26;34.40;;;16.30;;
29906;SDS011;16776;50.958;10.994;2024-01-10T13:57:52;32.03;;;15.93;;
29906;SDS011;16776;50.958;10.994;2024-01-10T14:00:21;32.00;;;15.57;;
29906;SDS011;16776;50.958;10.994;2024-01-10T14:02:47;34.35;;;15.77;;
29906;SDS011;16776;50.958;10.994;2024-01-10T14:05:15;34.15;;;15.02;;
29906;SDS011;16776;50.958;10.994;2024-01-10T14:07:42;36.88;;;14.98;;
29906;SDS011;16776;50.958;10.994;2024-01-10T14:10:11;30.23;;;15.30;;
29906;SDS011;16776;50.958;10.994;2024-01-10T14:12:38;30.77;;;15.02;;
29906;SDS011;16776;50.958;10.994;2024-01-10T14:15:05;34.20;;;15.60;;
29906;SDS011;16776;50.958;10.994;2024-01-10T14:17:32;39.08;;;18.90;;